createdAt,value
2023-01-17T00:00:37.238Z,18.45
2023-01-17T00:03:04.919Z,21.70
2023-01-17T00:05:51.174Z,25.63
2023-01-17T00:08:37.437Z,27.67
2023-01-17T00:12:18.912Z,29.42
2023-01-17T00:16:00.045Z,59.72
2023-01-17T00:19:03.409Z,80.93
2023-01-17T00:21:49.190Z,41.70
2023-01-17T00:24:34.985Z,49.67
2023-01-17T00:27:14.707Z,51.30
2023-01-17T00:29:42.215Z,44.80
2023-01-17T00:32:09.655Z,45.53
2023-01-17T00:34:37.128Z,46.10
2023-01-17T00:37:04.680Z,55.15
2023-01-17T00:39:32.153Z,53.08
2023-01-17T00:41:59.649Z,54.95
2023-01-17T00:44:45.568Z,50.83
2023-01-17T00:47:31.450Z,55.33
2023-01-17T00:50:17.297Z,56.15
2023-01-17T00:53:03.790Z,62.08
2023-01-17T00:55:51.932Z,67.03
2023-01-17T00:58:37.627Z,68.90
2023-01-17T01:01:26.687Z,72.55
2023-01-17T01:04:12.984Z,79.22
2023-01-17T01:07:00.365Z,82.78
2023-01-17T01:09:46.150Z,79.72
2023-01-17T01:12:32.466Z,83.03
2023-01-17T01:15:18.366Z,72.85
2023-01-17T01:20:50.939Z,70.70
2023-01-17T01:23:37.303Z,71.60
2023-01-17T01:26:23.788Z,70.53
2023-01-17T01:29:10.165Z,67.28
2023-01-17T01:31:56.494Z,71.03
2023-01-17T01:34:24.145Z,69.88
2023-01-17T01:36:51.784Z,63.80
2023-01-17T01:39:19.525Z,59.75
2023-01-17T01:41:47.147Z,54.35
2023-01-17T01:44:40.991Z,66.07
2023-01-17T01:47:12.290Z,65.93
2023-01-17T01:49:40.263Z,67.07
2023-01-17T01:52:09.814Z,65.53
2023-01-17T01:54:44.875Z,66.90
2023-01-17T01:57:17.237Z,61.28
2023-01-17T01:59:52.338Z,67.35
2023-01-17T02:02:19.983Z,62.33
2023-01-17T02:04:48.726Z,67.28
2023-01-17T02:07:25.639Z,58.60
2023-01-17T02:09:54.595Z,59.42
2023-01-17T02:12:22.360Z,62.60
2023-01-17T02:14:49.900Z,63.30
2023-01-17T02:17:38.983Z,63.78
2023-01-17T02:20:43.283Z,59.05
2023-01-17T02:23:36.135Z,59.40
2023-01-17T02:26:25.283Z,62.58
2023-01-17T02:29:05.874Z,59.00
2023-01-17T02:31:43.757Z,58.78
2023-01-17T02:34:40.126Z,61.58
2023-01-17T02:37:11.058Z,56.13
2023-01-17T02:39:53.300Z,58.78
2023-01-17T02:42:26.702Z,55.85
2023-01-17T02:44:54.255Z,54.72
2023-01-17T02:47:28.347Z,56.45
2023-01-17T02:50:02.205Z,59.75
2023-01-17T02:52:59.131Z,60.25
2023-01-17T02:55:32.476Z,61.38
2023-01-17T02:58:13.376Z,59.15
2023-01-17T03:00:56.581Z,59.40
2023-01-17T03:03:35.602Z,59.25
2023-01-17T03:06:12.701Z,58.40
2023-01-17T03:08:43.064Z,58.38
2023-01-17T03:11:12.777Z,56.08
2023-01-17T03:13:41.383Z,56.17
2023-01-17T03:16:15.093Z,58.08
2023-01-17T03:18:42.872Z,57.70
2023-01-17T03:21:10.605Z,56.05
2023-01-17T03:23:38.241Z,54.88
2023-01-17T03:26:06.079Z,56.13
2023-01-17T03:28:34.691Z,49.85
2023-01-17T03:31:02.334Z,55.90
2023-01-17T03:33:29.939Z,60.40
2023-01-17T03:35:58.326Z,60.40
2023-01-17T03:38:27.068Z,59.17
2023-01-17T03:40:55.049Z,57.78
2023-01-17T03:43:23.813Z,62.70
2023-01-17T03:45:54.576Z,63.45
2023-01-17T03:48:23.266Z,62.75
2023-01-17T03:50:53.626Z,59.72
2023-01-17T03:53:21.537Z,61.45
2023-01-17T03:55:49.115Z,61.72
2023-01-17T03:58:16.851Z,64.20
2023-01-17T04:00:44.473Z,64.35
2023-01-17T04:03:12.088Z,63.85
2023-01-17T04:05:58.005Z,64.35
2023-01-17T04:10:52.978Z,65.00
2023-01-17T04:13:20.520Z,64.70
2023-01-17T04:15:51.207Z,63.63
2023-01-17T04:18:20.337Z,62.97
2023-01-17T04:20:47.831Z,59.92
2023-01-17T04:23:16.776Z,60.08
2023-01-17T04:25:44.649Z,55.92
2023-01-17T04:28:12.895Z,58.10
2023-01-17T04:30:40.627Z,60.15
2023-01-17T04:33:08.462Z,56.17
2023-01-17T04:35:36.448Z,57.10
2023-01-17T04:38:04.089Z,55.80
2023-01-17T04:40:31.833Z,55.85
2023-01-17T04:42:59.684Z,53.72
2023-01-17T04:45:27.376Z,54.20
2023-01-17T04:47:54.901Z,51.83
2023-01-17T04:50:22.510Z,57.83
2023-01-17T04:52:50.104Z,54.28
2023-01-17T04:55:17.643Z,53.88
2023-01-17T04:57:45.291Z,56.00
2023-01-17T05:00:13.494Z,52.63
2023-01-17T05:02:41.155Z,53.22
2023-01-17T05:05:09.298Z,56.35
2023-01-17T05:07:36.867Z,51.15
2023-01-17T05:10:06.414Z,55.67
2023-01-17T05:12:34.132Z,53.92
2023-01-17T05:15:02.800Z,56.15
2023-01-17T05:17:30.975Z,55.60
2023-01-17T05:19:58.563Z,54.67
2023-01-17T05:22:27.168Z,57.42
2023-01-17T05:24:54.731Z,58.63
2023-01-17T05:27:22.322Z,57.80
2023-01-17T05:29:49.872Z,64.22
2023-01-17T05:32:17.595Z,63.55
2023-01-17T05:34:45.114Z,67.00
2023-01-17T05:37:12.777Z,71.43
2023-01-17T05:39:40.353Z,64.60
2023-01-17T05:42:07.973Z,81.80
2023-01-17T05:44:35.477Z,75.68
2023-01-17T05:47:03.203Z,74.75
2023-01-17T05:49:30.797Z,77.65
2023-01-17T05:51:58.440Z,66.50
2023-01-17T05:54:26.052Z,67.38
2023-01-17T05:56:53.660Z,83.72
2023-01-17T05:59:32.360Z,69.65
2023-01-17T06:02:03.855Z,93.95
2023-01-17T06:05:11.028Z,72.00
2023-01-17T06:26:48.540Z,57.55
2023-01-17T06:29:31.028Z,57.97
2023-01-17T06:32:32.522Z,54.60
2023-01-17T06:35:00.398Z,50.95
2023-01-17T06:37:30.866Z,54.35
2023-01-17T06:39:58.694Z,54.65
2023-01-17T06:42:26.302Z,50.50
2023-01-17T06:44:53.995Z,50.10
2023-01-17T06:47:21.632Z,45.10
2023-01-17T06:49:49.488Z,46.72
2023-01-17T06:52:17.393Z,41.10
2023-01-17T06:54:45.052Z,39.83
2023-01-17T06:57:17.101Z,43.92
2023-01-17T06:59:44.754Z,41.22
2023-01-17T07:02:12.465Z,41.42
2023-01-17T07:04:40.256Z,38.33
2023-01-17T07:07:07.983Z,35.85
2023-01-17T07:09:45.266Z,27.05
2023-01-17T07:12:13.272Z,24.48
2023-01-17T07:14:41.001Z,21.38
2023-01-17T07:17:08.799Z,20.73
2023-01-17T07:19:39.164Z,19.50
2023-01-17T07:22:06.963Z,18.25
2023-01-17T07:24:36.628Z,21.77
2023-01-17T07:27:04.607Z,22.67
2023-01-17T07:30:00.852Z,21.92
2023-01-17T07:35:11.590Z,24.40
2023-01-17T07:37:43.500Z,23.88
2023-01-17T07:40:34.913Z,29.30
2023-01-17T07:43:31.584Z,23.27
2023-01-17T07:46:09.229Z,21.08
2023-01-17T07:48:38.142Z,19.58
2023-01-17T07:51:14.744Z,18.33
2023-01-17T07:53:51.215Z,19.17
2023-01-17T07:56:21.473Z,16.83
2023-01-17T07:58:51.678Z,18.63
2023-01-17T08:01:26.963Z,16.75
2023-01-17T08:04:00.799Z,17.33
2023-01-17T08:06:34.482Z,18.02
2023-01-17T08:09:04.939Z,16.80
2023-01-17T08:11:36.736Z,18.88
2023-01-17T08:14:11.703Z,16.92
2023-01-17T08:16:42.793Z,20.02
2023-01-17T08:19:13.551Z,17.63
2023-01-17T08:21:47.900Z,16.33
2023-01-17T08:24:20.780Z,17.88
2023-01-17T08:26:51.320Z,18.02
2023-01-17T08:29:22.655Z,19.42
2023-01-17T08:32:00.984Z,17.80
2023-01-17T08:34:38.165Z,19.92
2023-01-17T08:41:02.910Z,21.83
2023-01-17T08:47:51.660Z,27.48
2023-01-17T08:59:17.090Z,25.65
2023-01-17T09:06:39.271Z,22.85
2023-01-17T09:09:49.403Z,24.42
2023-01-17T09:13:47.734Z,19.80
2023-01-17T09:17:14.494Z,19.30
2023-01-17T09:21:41.819Z,19.13
2023-01-17T09:29:47.753Z,18.02
2023-01-17T09:32:17.289Z,16.90
2023-01-17T09:34:44.729Z,16.08
2023-01-17T09:37:12.340Z,16.30
2023-01-17T09:39:39.759Z,18.45
2023-01-17T09:42:32.820Z,16.60
2023-01-17T09:45:00.483Z,16.85
2023-01-17T09:47:43.184Z,15.73
2023-01-17T09:50:40.788Z,13.70
2023-01-17T09:53:20.828Z,12.80
2023-01-17T09:55:58.941Z,13.45
2023-01-17T09:58:40.731Z,13.32
2023-01-17T10:01:46.593Z,13.13
2023-01-17T10:04:38.353Z,10.38
2023-01-17T10:07:28.938Z,10.43
2023-01-17T10:10:16.567Z,9.65
2023-01-17T10:12:57.690Z,9.95
2023-01-17T10:15:25.066Z,11.00
2023-01-17T10:18:28.860Z,11.77
2023-01-17T10:21:11.191Z,8.65
2023-01-17T10:23:44.428Z,9.82
2023-01-17T10:26:18.676Z,9.32
2023-01-17T10:28:51.116Z,8.50
2023-01-17T10:31:26.242Z,10.25
2023-01-17T10:34:03.667Z,9.30
2023-01-17T10:36:38.723Z,7.63
2023-01-17T10:39:26.653Z,7.10
2023-01-17T10:41:58.552Z,7.43
2023-01-17T10:44:33.153Z,8.63
2023-01-17T10:47:20.027Z,8.57
2023-01-17T10:49:55.423Z,6.35
2023-01-17T10:52:56.652Z,6.10
2023-01-17T10:55:43.320Z,6.32
2023-01-17T10:58:12.795Z,5.35
2023-01-17T11:01:02.395Z,6.47
2023-01-17T11:03:31.241Z,5.00
2023-01-17T11:06:20.105Z,4.97
2023-01-17T11:08:53.227Z,5.63
2023-01-17T11:11:23.972Z,5.45
2023-01-17T11:13:56.238Z,5.75
2023-01-17T11:16:27.551Z,6.40
2023-01-17T11:19:27.931Z,6.18
2023-01-17T11:22:01.696Z,4.65
2023-01-17T11:24:36.745Z,5.22
2023-01-17T11:27:06.183Z,5.13
2023-01-17T11:29:39.137Z,5.28
2023-01-17T11:32:21.645Z,5.30
2023-01-17T11:35:10.352Z,5.22
2023-01-17T11:37:37.840Z,4.00
2023-01-17T11:40:48.625Z,4.13
2023-01-17T11:43:26.917Z,5.30
2023-01-17T11:46:20.653Z,6.07
2023-01-17T11:48:56.159Z,3.90
2023-01-17T11:51:43.328Z,4.10
2023-01-17T11:54:39.181Z,3.38
2023-01-17T11:57:17.333Z,5.45
2023-01-17T11:59:45.943Z,3.95
2023-01-17T12:02:41.078Z,4.47
2023-01-17T12:05:37.723Z,4.45
2023-01-17T12:08:30.593Z,2.97
2023-01-17T12:11:26.832Z,2.63
2023-01-17T12:14:12.199Z,2.08
2023-01-17T12:17:11.608Z,2.92
2023-01-17T12:20:04.939Z,2.53
2023-01-17T12:23:14.465Z,2.30
2023-01-17T12:26:19.704Z,3.15
2023-01-17T12:29:00.977Z,2.30
2023-01-17T12:31:35.225Z,2.00
2023-01-17T12:34:26.258Z,2.03
2023-01-17T12:37:06.994Z,3.25
2023-01-17T12:39:42.719Z,2.65
2023-01-17T12:44:55.839Z,2.30
2023-01-17T12:47:23.582Z,1.70
2023-01-17T12:50:00.924Z,3.65
2023-01-17T12:52:38.678Z,1.83
2023-01-17T12:55:15.008Z,1.42
2023-01-17T12:57:47.822Z,2.05
2023-01-17T13:00:23.139Z,1.92
2023-01-17T13:03:18.911Z,1.77
2023-01-17T13:05:47.139Z,1.40
2023-01-17T13:08:47.058Z,3.47
2023-01-17T13:11:27.821Z,1.30
2023-01-17T13:13:58.014Z,1.70
2023-01-17T13:16:42.149Z,1.77
2023-01-17T13:19:24.541Z,2.72
2023-01-17T13:21:52.716Z,4.00
2023-01-17T13:24:34.445Z,4.03
2023-01-17T13:27:32.288Z,5.88
2023-01-17T13:30:22.161Z,3.20
2023-01-17T13:33:20.541Z,4.78
2023-01-17T13:36:10.632Z,3.65
2023-01-17T13:38:59.432Z,3.38
2023-01-17T13:41:54.051Z,4.93
2023-01-17T13:44:27.533Z,5.78
2023-01-17T13:47:08.137Z,5.13
2023-01-17T13:49:49.400Z,5.45
2023-01-17T13:52:19.680Z,19.35
2023-01-17T13:54:50.263Z,5.72
2023-01-17T13:57:29.343Z,5.53
2023-01-17T13:59:59.121Z,2.40
2023-01-17T14:02:32.465Z,5.22
2023-01-17T14:05:12.464Z,3.75
2023-01-17T14:07:43.813Z,2.97
2023-01-17T14:10:39.520Z,5.45
2023-01-17T14:13:35.256Z,3.97
2023-01-17T14:16:29.195Z,5.35
2023-01-17T14:19:04.493Z,4.07
2023-01-17T14:21:32.662Z,4.82
2023-01-17T14:24:18.666Z,5.47
2023-01-17T14:26:57.139Z,6.05
2023-01-17T14:29:43.009Z,3.92
2023-01-17T14:32:19.444Z,5.45
2023-01-17T14:35:06.091Z,3.42
2023-01-17T14:37:56.081Z,3.15
2023-01-17T14:40:30.662Z,2.83
2023-01-17T14:42:58.221Z,2.93
2023-01-17T14:45:31.869Z,4.65
2023-01-17T14:48:03.229Z,4.20
2023-01-17T14:50:52.383Z,5.40
2023-01-17T14:53:39.551Z,9.57
2023-01-17T14:56:15.427Z,5.55
2023-01-17T14:58:43.088Z,5.20
2023-01-17T15:01:17.759Z,5.05
2023-01-17T15:03:49.722Z,4.35
2023-01-17T15:06:20.822Z,5.53
2023-01-17T15:08:50.357Z,6.50
2023-01-17T15:11:33.035Z,6.20
2023-01-17T15:14:05.955Z,5.65
2023-01-17T15:16:37.406Z,4.93
2023-01-17T16:40:16.430Z,7.45
2023-01-17T16:49:50.491Z,6.88
2023-01-17T16:53:54.603Z,4.72
2023-01-17T16:57:23.256Z,5.57
2023-01-17T17:00:32.287Z,4.55
2023-01-17T17:14:16.249Z,6.75
2023-01-17T17:16:53.607Z,7.45
2023-01-17T17:19:21.548Z,15.32
2023-01-17T17:22:48.130Z,18.17
2023-01-17T17:51:10.407Z,9.50
2023-01-17T18:12:08.705Z,11.13
2023-01-17T18:14:59.900Z,10.93
2023-01-17T18:17:44.001Z,14.45
2023-01-17T18:20:25.023Z,12.00
2023-01-17T18:22:53.707Z,19.70
2023-01-17T18:25:23.740Z,21.95
2023-01-17T18:28:11.749Z,14.63
2023-01-17T18:30:39.538Z,19.35
2023-01-17T18:34:22.693Z,14.10
2023-01-17T18:36:51.275Z,15.57
2023-01-17T18:39:29.364Z,15.73
2023-01-17T18:46:26.073Z,14.18
2023-01-17T18:49:33.272Z,15.63
2023-01-17T18:52:01.606Z,15.18
2023-01-17T18:54:35.963Z,12.65
2023-01-17T18:57:09.094Z,13.02
2023-01-17T18:59:36.659Z,12.93
2023-01-17T19:03:21.190Z,12.23
2023-01-17T19:06:55.940Z,15.18
2023-01-17T20:39:04.305Z,17.20
2023-01-17T22:14:10.159Z,175.00
2023-01-17T23:13:56.075Z,18.60
2023-01-17T23:16:42.625Z,15.95
2023-01-17T23:19:31.507Z,14.88
2023-01-17T23:22:58.825Z,14.18
2023-01-17T23:29:27.070Z,14.82
2023-01-17T23:31:54.713Z,13.85
2023-01-17T23:34:50.125Z,13.85
2023-01-17T23:38:09.322Z,13.43
2023-01-17T23:49:35.736Z,14.43
2023-01-17T23:52:08.482Z,13.65
2023-01-17T23:54:36.100Z,16.23
2023-01-17T23:57:10.256Z,15.52
2023-01-17T23:59:50.647Z,14.98
